createdAt,value
2022-11-02T00:01:36.311Z,12.70
2022-11-02T00:04:03.210Z,12.70
2022-11-02T00:06:30.011Z,12.70
2022-11-02T00:08:56.863Z,12.70
2022-11-02T00:11:23.746Z,12.70
2022-11-02T00:13:50.815Z,12.70
2022-11-02T00:16:22.640Z,12.60
2022-11-02T00:18:58.273Z,12.60
2022-11-02T00:21:27.311Z,12.60
2022-11-02T00:23:57.654Z,12.60
2022-11-02T00:26:27.294Z,12.50
2022-11-02T00:28:55.159Z,12.50
2022-11-02T00:31:23.343Z,12.50
2022-11-02T00:33:51.248Z,12.40
2022-11-02T00:36:18.349Z,12.40
2022-11-02T00:38:45.196Z,12.40
2022-11-02T00:41:12.710Z,12.30
2022-11-02T00:43:39.671Z,12.30
2022-11-02T00:46:06.501Z,12.30
2022-11-02T00:48:34.824Z,12.30
2022-11-02T00:51:02.182Z,12.30
2022-11-02T00:53:30.077Z,12.20
2022-11-02T00:55:57.030Z,12.30
2022-11-02T00:58:24.040Z,12.30
2022-11-02T01:00:51.460Z,12.30
2022-11-02T01:03:18.388Z,12.40
2022-11-02T01:05:46.815Z,12.40
2022-11-02T01:08:14.229Z,12.40
2022-11-02T01:13:40.554Z,12.50
2022-11-02T01:16:09.363Z,12.40
2022-11-02T01:18:36.245Z,12.50
2022-11-02T01:21:04.781Z,12.40
2022-11-02T01:23:33.015Z,12.40
2022-11-02T01:26:03.293Z,12.40
2022-11-02T01:28:31.724Z,12.40
2022-11-02T01:30:59.496Z,12.40
2022-11-02T01:33:26.624Z,12.40
2022-11-02T01:35:55.414Z,12.40
2022-11-02T01:38:25.019Z,12.40
2022-11-02T01:40:52.000Z,12.40
2022-11-02T01:43:21.496Z,12.40
2022-11-02T01:45:52.031Z,12.40
2022-11-02T01:48:28.171Z,12.40
2022-11-02T01:50:56.404Z,12.40
2022-11-02T01:53:24.580Z,12.40
2022-11-02T01:58:47.203Z,12.30
2022-11-02T02:01:14.270Z,12.20
2022-11-02T02:03:42.999Z,12.20
2022-11-02T02:06:14.505Z,12.20
2022-11-02T02:08:48.919Z,12.10
2022-11-02T02:11:28.388Z,12.10
2022-11-02T02:14:00.541Z,12.10
2022-11-02T02:16:45.929Z,12.10
2022-11-02T02:19:30.871Z,12.00
2022-11-02T02:22:36.183Z,12.00
2022-11-02T02:25:25.582Z,12.00
2022-11-02T02:28:18.699Z,11.90
2022-11-02T02:30:54.352Z,12.00
2022-11-02T02:33:30.736Z,11.90
2022-11-02T02:36:06.938Z,12.00
2022-11-02T02:38:43.642Z,12.00
2022-11-02T02:41:17.715Z,12.00
2022-11-02T02:43:50.241Z,12.00
2022-11-02T02:46:24.147Z,12.10
2022-11-02T02:48:56.040Z,12.10
2022-11-02T02:51:29.855Z,12.10
2022-11-02T02:54:02.873Z,12.10
2022-11-02T02:56:37.979Z,12.20
2022-11-02T02:59:15.956Z,12.20
2022-11-02T03:02:16.141Z,12.20
2022-11-02T03:04:43.310Z,12.20
2022-11-02T03:07:17.949Z,12.20
2022-11-02T03:09:51.911Z,12.30
2022-11-02T03:12:31.597Z,12.30
2022-11-02T03:15:13.349Z,12.40
2022-11-02T03:17:56.703Z,12.40
2022-11-02T03:20:33.691Z,12.40
2022-11-02T03:23:16.412Z,12.30
2022-11-02T03:25:56.715Z,12.30
2022-11-02T03:28:41.921Z,12.30
2022-11-02T03:31:17.889Z,12.30
2022-11-02T03:33:55.379Z,12.30
2022-11-02T03:36:31.026Z,12.30
2022-11-02T03:39:32.726Z,12.30
2022-11-02T03:42:05.249Z,12.30
2022-11-02T03:44:39.653Z,12.30
2022-11-02T03:47:16.330Z,12.20
2022-11-02T03:49:47.337Z,12.20
2022-11-02T03:52:22.946Z,12.20
2022-11-02T03:55:00.123Z,12.20
2022-11-02T03:57:35.968Z,12.20
2022-11-02T04:00:09.372Z,12.10
2022-11-02T04:02:47.009Z,12.10
2022-11-02T04:05:15.708Z,12.10
2022-11-02T04:07:49.950Z,12.10
2022-11-02T04:10:17.741Z,12.10
2022-11-02T04:12:44.700Z,12.10
2022-11-02T04:15:11.650Z,12.00
2022-11-02T04:17:38.703Z,12.00
2022-11-02T04:20:12.823Z,12.00
2022-11-02T04:22:39.759Z,12.00
2022-11-02T04:25:16.283Z,12.00
2022-11-02T04:27:51.669Z,12.00
2022-11-02T04:30:23.988Z,12.00
2022-11-02T04:32:53.630Z,12.00
2022-11-02T04:35:21.933Z,12.00
2022-11-02T04:37:48.940Z,12.10
2022-11-02T04:40:16.499Z,12.00
2022-11-02T04:42:46.672Z,12.00
2022-11-02T04:45:13.814Z,12.00
2022-11-02T04:47:41.186Z,12.00
2022-11-02T04:50:09.325Z,11.90
2022-11-02T04:52:37.606Z,11.90
2022-11-02T04:55:06.243Z,11.90
2022-11-02T04:57:33.222Z,11.90
2022-11-02T05:00:00.604Z,12.00
2022-11-02T05:02:29.597Z,12.00
2022-11-02T05:04:57.315Z,12.00
2022-11-02T05:07:25.951Z,12.10
2022-11-02T05:09:54.383Z,12.10
2022-11-02T05:12:28.087Z,12.00
2022-11-02T05:14:56.870Z,12.10
2022-11-02T05:17:23.995Z,12.10
2022-11-02T05:19:51.102Z,12.10
2022-11-02T05:22:18.645Z,12.10
2022-11-02T05:24:45.780Z,12.10
2022-11-02T05:27:15.246Z,12.20
2022-11-02T05:29:44.205Z,12.20
2022-11-02T05:32:11.074Z,12.20
2022-11-02T05:34:39.050Z,12.20
2022-11-02T05:37:08.721Z,12.20
2022-11-02T05:39:35.716Z,12.20
2022-11-02T05:42:03.381Z,12.30
2022-11-02T05:44:31.873Z,12.30
2022-11-02T05:46:59.312Z,12.30
2022-11-02T05:49:26.257Z,12.40
2022-11-02T05:51:53.210Z,12.30
2022-11-02T05:54:20.595Z,12.30
2022-11-02T05:56:47.694Z,12.30
2022-11-02T05:59:14.492Z,12.40
2022-11-02T06:02:07.543Z,12.40
2022-11-02T06:04:34.405Z,12.30
2022-11-02T06:07:01.418Z,12.30
2022-11-02T06:09:28.301Z,12.30
2022-11-02T06:11:56.038Z,12.30
2022-11-02T06:14:22.837Z,12.30
2022-11-02T06:16:49.809Z,12.40
2022-11-02T06:19:18.132Z,12.30
2022-11-02T06:21:48.311Z,12.30
2022-11-02T06:24:15.683Z,12.30
2022-11-02T06:26:42.622Z,12.30
2022-11-02T06:29:10.021Z,12.30
2022-11-02T06:31:36.927Z,12.30
2022-11-02T06:34:04.017Z,12.30
2022-11-02T06:39:23.268Z,12.40
2022-11-02T06:41:50.179Z,12.30
2022-11-02T06:44:18.252Z,12.30
2022-11-02T06:46:45.585Z,12.30
2022-11-02T06:49:12.566Z,12.30
2022-11-02T06:51:40.846Z,12.30
2022-11-02T06:54:08.810Z,12.30
2022-11-02T06:56:36.021Z,12.30
2022-11-02T06:59:02.928Z,12.30
2022-11-02T07:01:29.886Z,12.40
2022-11-02T07:03:56.774Z,12.40
2022-11-02T07:06:23.666Z,12.40
2022-11-02T07:08:52.138Z,12.40
2022-11-02T07:11:19.088Z,12.40
2022-11-02T07:13:45.992Z,12.50
2022-11-02T07:16:12.919Z,12.60
2022-11-02T07:18:40.352Z,12.60
2022-11-02T07:21:07.671Z,12.70
2022-11-02T07:23:34.549Z,12.70
2022-11-02T07:26:03.403Z,12.70
2022-11-02T07:28:30.497Z,12.70
2022-11-02T07:30:58.045Z,12.70
2022-11-02T07:33:24.916Z,12.80
2022-11-02T07:35:51.763Z,12.90
2022-11-02T07:38:18.926Z,12.90
2022-11-02T07:40:49.675Z,12.90
2022-11-02T07:43:17.935Z,12.90
2022-11-02T07:45:52.072Z,13.00
2022-11-02T07:48:19.222Z,13.10
2022-11-02T07:50:46.401Z,13.10
2022-11-02T07:53:13.388Z,13.10
2022-11-02T07:55:41.104Z,13.20
2022-11-02T07:58:11.683Z,13.30
2022-11-02T08:00:41.341Z,13.30
2022-11-02T08:03:11.056Z,13.60
2022-11-02T08:05:41.183Z,13.50
2022-11-02T08:08:15.277Z,13.50
2022-11-02T08:10:43.871Z,13.90
2022-11-02T08:13:14.087Z,13.70
2022-11-02T08:15:42.582Z,14.00
2022-11-02T08:18:18.339Z,14.40
2022-11-02T08:20:46.179Z,14.10
2022-11-02T08:23:14.565Z,14.00
2022-11-02T08:25:43.156Z,13.90
2022-11-02T08:28:14.431Z,13.80
2022-11-02T08:30:43.360Z,13.80
2022-11-02T08:33:13.475Z,13.70
2022-11-02T08:35:41.497Z,13.60
2022-11-02T08:38:09.914Z,13.70
2022-11-02T08:40:38.229Z,13.80
2022-11-02T08:43:07.719Z,13.80
2022-11-02T08:46:12.736Z,13.90
2022-11-02T08:48:26.272Z,13.90
2022-11-02T08:50:53.384Z,13.90
2022-11-02T08:53:20.611Z,13.90
2022-11-02T08:55:47.423Z,13.90
2022-11-02T08:58:14.639Z,14.10
2022-11-02T09:00:41.426Z,14.00
2022-11-02T09:03:11.052Z,14.00
2022-11-02T09:05:41.566Z,13.90
2022-11-02T09:08:12.528Z,13.80
2022-11-02T09:10:40.200Z,13.80
2022-11-02T09:13:11.529Z,13.90
2022-11-02T09:15:39.152Z,14.00
2022-11-02T09:18:08.625Z,14.80
2022-11-02T09:20:36.818Z,14.40
2022-11-02T09:23:05.328Z,14.20
2022-11-02T09:25:32.315Z,14.20
2022-11-02T09:27:59.486Z,14.50
2022-11-02T09:30:27.881Z,14.80
2022-11-02T09:32:55.900Z,14.90
2022-11-02T09:35:24.031Z,14.80
2022-11-02T09:37:51.256Z,14.50
2022-11-02T09:40:23.037Z,14.40
2022-11-02T09:43:04.737Z,14.20
2022-11-02T09:45:37.113Z,14.30
2022-11-02T09:48:19.909Z,14.30
2022-11-02T09:50:57.828Z,14.30
2022-11-02T09:53:46.931Z,14.10
2022-11-02T09:56:18.246Z,14.10
2022-11-02T09:58:49.668Z,14.10
2022-11-02T10:01:31.570Z,14.00
2022-11-02T10:04:43.332Z,13.90
2022-11-02T10:07:29.334Z,13.70
2022-11-02T10:10:01.603Z,13.60
2022-11-02T10:12:43.990Z,13.60
2022-11-02T10:18:18.007Z,13.50
2022-11-02T10:20:48.504Z,13.50
2022-11-02T10:23:25.200Z,13.30
2022-11-02T10:25:52.641Z,13.30
2022-11-02T10:28:27.756Z,13.30
2022-11-02T10:30:55.281Z,13.40
2022-11-02T10:33:27.559Z,13.40
2022-11-02T10:36:24.143Z,13.10
2022-11-02T10:39:09.659Z,13.00
2022-11-02T10:41:58.321Z,12.90
2022-11-02T10:44:47.380Z,12.70
2022-11-02T10:47:18.382Z,12.70
2022-11-02T10:50:17.857Z,12.90
2022-11-02T10:52:47.054Z,13.00
2022-11-02T10:55:27.485Z,13.20
2022-11-02T10:57:58.689Z,14.60
2022-11-02T11:00:31.191Z,14.80
2022-11-02T11:03:10.706Z,14.20
2022-11-02T11:05:55.506Z,14.00
2022-11-02T11:08:41.179Z,13.90
2022-11-02T11:11:19.563Z,14.10
2022-11-02T11:16:50.220Z,14.10
2022-11-02T11:22:02.641Z,13.80
2022-11-02T11:24:32.064Z,13.70
2022-11-02T11:27:16.974Z,13.80
2022-11-02T11:29:52.730Z,14.40
2022-11-02T11:32:29.862Z,15.00
2022-11-02T11:35:03.087Z,14.70
2022-11-02T11:37:31.156Z,14.40
2022-11-02T11:40:02.094Z,14.10
2022-11-02T11:42:34.860Z,13.90
2022-11-02T11:45:05.802Z,14.10
2022-11-02T11:47:38.376Z,14.30
2022-11-02T11:50:19.875Z,14.40
2022-11-02T11:53:16.316Z,14.40
2022-11-02T11:55:48.583Z,14.40
2022-11-02T11:58:22.803Z,14.30
2022-11-02T12:01:10.507Z,14.30
2022-11-02T12:03:53.764Z,14.30
2022-11-02T12:06:31.371Z,14.20
2022-11-02T12:09:10.015Z,14.10
2022-11-02T12:11:53.792Z,14.60
2022-11-02T12:14:45.304Z,15.20
2022-11-02T12:17:35.762Z,15.00
2022-11-02T12:20:36.411Z,14.90
2022-11-02T12:23:23.438Z,14.70
2022-11-02T12:25:59.246Z,14.50
2022-11-02T12:28:40.837Z,14.30
2022-11-02T12:31:23.533Z,14.10
2022-11-02T12:34:22.476Z,13.70
2022-11-02T12:40:17.237Z,12.70
2022-11-02T12:42:56.998Z,12.40
2022-11-02T12:45:46.784Z,12.30
2022-11-02T12:48:21.720Z,12.30
2022-11-02T12:50:59.715Z,12.20
2022-11-02T12:53:46.613Z,12.20
2022-11-02T12:56:21.442Z,12.00
2022-11-02T12:58:49.690Z,11.80
2022-11-02T13:01:24.540Z,11.60
2022-11-02T13:03:59.815Z,11.50
2022-11-02T13:06:34.044Z,11.30
2022-11-02T13:09:10.546Z,11.10
2022-11-02T13:11:42.350Z,11.00
2022-11-02T13:14:16.831Z,10.90
2022-11-02T13:17:00.974Z,10.80
2022-11-02T13:19:38.209Z,10.70
2022-11-02T13:22:09.864Z,10.60
2022-11-02T13:24:43.294Z,10.50
2022-11-02T13:27:38.946Z,10.40
2022-11-02T13:30:15.653Z,10.40
2022-11-02T13:32:49.102Z,10.40
2022-11-02T13:35:24.158Z,10.40
2022-11-02T13:37:57.461Z,10.40
2022-11-02T13:40:31.162Z,10.40
2022-11-02T13:43:32.109Z,10.40
2022-11-02T13:46:19.350Z,10.30
2022-11-02T13:49:01.522Z,10.30
2022-11-02T13:51:36.438Z,10.30
2022-11-02T13:54:12.522Z,10.30
2022-11-02T13:56:42.166Z,10.40
2022-11-02T14:02:19.380Z,10.50
2022-11-02T14:04:47.060Z,10.60
2022-11-02T14:07:25.369Z,10.60
2022-11-02T14:09:59.181Z,10.70
2022-11-02T14:12:41.019Z,10.70
2022-11-02T14:15:52.325Z,10.80
2022-11-02T14:18:30.431Z,11.00
2022-11-02T14:20:57.923Z,11.10
2022-11-02T14:26:52.413Z,11.10
2022-11-02T14:29:50.264Z,11.00
2022-11-02T14:32:29.023Z,11.00
2022-11-02T14:35:17.934Z,11.00
2022-11-02T14:38:15.537Z,11.10
2022-11-02T14:40:54.716Z,11.10
2022-11-02T14:43:52.380Z,11.10
2022-11-02T14:46:46.324Z,11.10
2022-11-02T14:49:20.655Z,11.10
2022-11-02T14:52:04.278Z,11.00
2022-11-02T14:57:37.356Z,10.90
2022-11-02T15:00:19.120Z,10.90
2022-11-02T15:02:48.198Z,10.90
2022-11-02T15:05:28.296Z,10.80
2022-11-02T15:08:00.126Z,10.80
2022-11-02T15:10:44.610Z,10.80
2022-11-02T15:13:46.386Z,10.80
2022-11-02T15:16:24.931Z,10.80
2022-11-02T15:18:53.356Z,10.70
2022-11-02T15:21:29.792Z,10.70
2022-11-02T15:24:22.884Z,10.70
2022-11-02T15:26:53.580Z,10.60
2022-11-02T15:29:46.162Z,10.60
2022-11-02T15:32:22.662Z,10.60
2022-11-02T15:34:54.161Z,10.50
2022-11-02T15:37:24.287Z,10.50
2022-11-02T15:39:53.633Z,10.50
2022-11-02T15:42:36.816Z,10.50
2022-11-02T15:45:47.400Z,10.50
2022-11-02T15:48:32.252Z,10.50
2022-11-02T15:51:13.922Z,10.50
2022-11-02T15:54:01.659Z,10.50
2022-11-02T15:56:52.842Z,10.50
2022-11-02T15:59:48.957Z,10.50
2022-11-02T16:02:25.142Z,10.50
2022-11-02T16:04:57.040Z,10.50
2022-11-02T16:07:33.214Z,10.50
2022-11-02T16:10:24.572Z,10.40
2022-11-02T16:13:00.539Z,10.40
2022-11-02T16:15:28.787Z,10.40
2022-11-02T16:17:55.691Z,10.40
2022-11-02T16:20:26.759Z,10.40
2022-11-02T16:22:58.313Z,10.40
2022-11-02T16:25:38.679Z,10.30
2022-11-02T16:28:18.780Z,10.30
2022-11-02T16:31:10.063Z,10.30
2022-11-02T16:33:45.451Z,10.30
2022-11-02T16:36:17.134Z,10.30
2022-11-02T16:38:57.792Z,10.30
2022-11-02T16:41:27.412Z,10.30
2022-11-02T16:43:56.407Z,10.30
2022-11-02T16:46:30.890Z,10.20
2022-11-02T16:49:24.787Z,10.20
2022-11-02T16:51:54.430Z,10.20
2022-11-02T16:54:40.931Z,10.20
2022-11-02T16:57:19.008Z,10.20
2022-11-02T16:59:53.228Z,10.20
2022-11-02T17:02:34.234Z,10.20
2022-11-02T17:05:06.034Z,10.20
2022-11-02T17:07:40.703Z,10.20
2022-11-02T17:10:19.501Z,10.10
2022-11-02T17:12:49.039Z,10.10
2022-11-02T17:15:19.059Z,10.10
2022-11-02T17:17:47.479Z,10.00
2022-11-02T17:20:21.840Z,10.00
2022-11-02T17:22:52.838Z,10.00
2022-11-02T17:25:24.878Z,10.00
2022-11-02T17:27:54.420Z,10.00
2022-11-02T17:30:47.982Z,9.90
2022-11-02T17:33:28.506Z,9.80
2022-11-02T17:36:03.413Z,9.80
2022-11-02T17:38:30.255Z,9.80
2022-11-02T17:41:00.029Z,9.80
2022-11-02T17:43:27.649Z,9.80
2022-11-02T17:45:57.016Z,9.70
2022-11-02T17:48:24.640Z,9.70
2022-11-02T17:50:53.810Z,9.70
2022-11-02T17:53:21.610Z,9.70
2022-11-02T17:55:48.434Z,9.70
2022-11-02T17:58:17.178Z,9.70
2022-11-02T18:00:44.470Z,9.60
2022-11-02T18:03:16.411Z,9.60
2022-11-02T18:05:46.683Z,9.60
2022-11-02T18:08:17.265Z,9.60
2022-11-02T18:10:46.724Z,9.60
2022-11-02T18:13:17.528Z,9.50
2022-11-02T18:15:45.180Z,9.50
2022-11-02T18:18:12.138Z,9.50
2022-11-02T18:20:42.061Z,9.50
2022-11-02T18:23:15.534Z,9.40
2022-11-02T18:25:42.556Z,9.50
2022-11-02T18:28:09.453Z,9.50
2022-11-02T18:30:42.268Z,9.50
2022-11-02T18:33:13.419Z,9.50
2022-11-02T18:35:41.349Z,9.50
2022-11-02T18:38:08.559Z,9.50
2022-11-02T18:40:35.704Z,9.50
2022-11-02T18:43:03.216Z,9.60
2022-11-02T18:48:03.914Z,9.60
2022-11-02T18:50:31.305Z,9.60
2022-11-02T18:52:58.049Z,9.60
2022-11-02T18:55:24.999Z,9.60
2022-11-02T18:57:51.878Z,9.60
2022-11-02T19:00:19.358Z,9.60
2022-11-02T19:02:46.385Z,9.60
2022-11-02T19:05:14.551Z,9.60
2022-11-02T19:07:41.391Z,9.60
2022-11-02T19:10:09.322Z,9.60
2022-11-02T19:12:36.611Z,9.60
2022-11-02T19:15:04.591Z,9.50
2022-11-02T19:17:31.438Z,9.60
2022-11-02T19:19:58.501Z,9.50
2022-11-02T19:22:27.455Z,9.50
2022-11-02T19:24:54.340Z,9.50
2022-11-02T19:27:23.632Z,9.50
2022-11-02T19:29:52.484Z,9.50
2022-11-02T19:32:20.979Z,9.50
2022-11-02T19:34:48.040Z,9.50
2022-11-02T19:37:15.065Z,9.40
2022-11-02T19:39:43.162Z,9.40
2022-11-02T19:42:10.381Z,9.40
2022-11-02T19:44:42.504Z,9.40
2022-11-02T19:47:10.555Z,9.40
2022-11-02T19:49:37.537Z,9.40
2022-11-02T19:52:04.570Z,9.40
2022-11-02T19:54:34.774Z,9.40
2022-11-02T19:57:06.026Z,9.40
2022-11-02T19:59:33.425Z,9.30
2022-11-02T20:02:00.362Z,9.30
2022-11-02T20:04:27.362Z,9.30
2022-11-02T20:06:54.268Z,9.30
2022-11-02T20:09:21.311Z,9.30
2022-11-02T20:11:48.940Z,9.30
2022-11-02T20:14:17.689Z,9.20
2022-11-02T20:16:50.253Z,9.20
2022-11-02T20:19:25.243Z,9.20
2022-11-02T20:21:52.362Z,9.20
2022-11-02T20:24:19.479Z,9.20
2022-11-02T20:26:46.290Z,9.20
2022-11-02T20:29:15.476Z,9.10
2022-11-02T20:34:38.187Z,9.10
2022-11-02T20:37:06.931Z,9.10
2022-11-02T20:39:33.990Z,9.10
2022-11-02T20:42:00.833Z,9.10
2022-11-02T20:44:27.731Z,9.10
2022-11-02T20:46:56.276Z,9.00
2022-11-02T20:49:48.675Z,9.00
2022-11-02T20:52:10.651Z,9.00
2022-11-02T20:54:37.402Z,9.00
2022-11-02T20:57:05.673Z,9.00
2022-11-02T20:59:32.531Z,9.00
2022-11-02T21:04:54.949Z,8.90
2022-11-02T21:07:22.338Z,8.90
2022-11-02T21:09:50.429Z,8.90
2022-11-02T21:12:17.829Z,8.90
2022-11-02T21:14:44.719Z,8.90
2022-11-02T21:17:13.335Z,8.90
2022-11-02T21:19:42.071Z,8.90
2022-11-02T21:22:09.073Z,8.90
2022-11-02T21:24:35.954Z,8.90
2022-11-02T21:27:02.934Z,8.80
2022-11-02T21:29:29.935Z,8.80
2022-11-02T21:31:56.770Z,8.80
2022-11-02T21:34:25.251Z,8.80
2022-11-02T21:36:52.470Z,8.80
2022-11-02T21:39:19.339Z,8.70
2022-11-02T21:41:46.922Z,8.70
2022-11-02T21:44:14.096Z,8.70
2022-11-02T21:46:41.533Z,8.70
2022-11-02T21:49:09.748Z,8.70
2022-11-02T21:51:38.503Z,8.70
2022-11-02T21:54:05.750Z,8.60
2022-11-02T21:56:33.670Z,8.60
2022-11-02T21:59:01.045Z,8.60
2022-11-02T22:01:30.325Z,8.60
2022-11-02T22:03:57.561Z,8.60
2022-11-02T22:06:29.902Z,8.60
2022-11-02T22:09:00.134Z,8.60
2022-11-02T22:11:28.085Z,8.60
2022-11-02T22:13:57.664Z,8.60
2022-11-02T22:16:26.669Z,8.60
2022-11-02T22:18:56.362Z,8.60
2022-11-02T22:21:26.038Z,8.60
2022-11-02T22:23:53.685Z,8.60
2022-11-02T22:26:24.343Z,8.60
2022-11-02T22:28:52.191Z,8.60
2022-11-02T22:31:22.062Z,8.60
2022-11-02T22:33:51.309Z,8.60
2022-11-02T22:36:22.787Z,8.60
2022-11-02T22:38:50.355Z,8.60
2022-11-02T22:41:19.024Z,8.50
2022-11-02T22:43:52.865Z,8.50
2022-11-02T22:46:21.044Z,8.50
2022-11-02T22:48:50.650Z,8.50
2022-11-02T22:51:18.212Z,8.50
2022-11-02T22:53:45.920Z,8.50
2022-11-02T22:56:14.772Z,8.50
2022-11-02T22:58:43.984Z,8.50
2022-11-02T23:01:15.582Z,8.60
2022-11-02T23:03:43.657Z,8.60
2022-11-02T23:06:11.881Z,8.60
2022-11-02T23:08:43.035Z,8.60
2022-11-02T23:11:11.458Z,8.60
2022-11-02T23:13:38.385Z,8.60
2022-11-02T23:16:07.842Z,8.60
2022-11-02T23:18:36.260Z,8.60
2022-11-02T23:21:05.270Z,8.60
2022-11-02T23:23:32.312Z,8.60
2022-11-02T23:25:59.506Z,8.60
2022-11-02T23:28:26.836Z,8.60
2022-11-02T23:30:55.112Z,8.60
2022-11-02T23:36:17.149Z,8.70
2022-11-02T23:38:48.046Z,8.70
2022-11-02T23:41:15.441Z,8.70
2022-11-02T23:43:42.936Z,8.70
2022-11-02T23:46:10.040Z,8.70
2022-11-02T23:48:37.167Z,8.70
2022-11-02T23:51:05.028Z,8.70
2022-11-02T23:53:33.288Z,8.70
2022-11-02T23:56:01.004Z,8.70
2022-11-02T23:58:31.291Z,8.70
